createdAt,value
2019-05-19T00:00:30.780Z,95.26
2019-05-19T00:01:30.776Z,95.67
2019-05-19T00:02:30.760Z,94.82
2019-05-19T00:03:30.762Z,95.06
2019-05-19T00:04:30.737Z,94.82
2019-05-19T00:05:30.775Z,94.76
2019-05-19T00:06:30.719Z,94.76
2019-05-19T00:07:30.710Z,94.66
2019-05-19T00:08:30.700Z,94.66
2019-05-19T00:09:30.697Z,94.76
2019-05-19T00:10:30.708Z,94.56
2019-05-19T00:11:30.668Z,95.17
2019-05-19T00:12:30.667Z,94.71
2019-05-19T00:13:30.637Z,95.37
2019-05-19T00:14:30.650Z,95.57
2019-05-19T00:15:30.636Z,94.96
2019-05-19T00:16:30.628Z,95.26
2019-05-19T00:17:30.612Z,95.37
2019-05-19T00:18:30.587Z,95.26
2019-05-19T00:19:30.579Z,95.87
2019-05-19T00:20:30.610Z,95.37
2019-05-19T00:21:30.548Z,94.71
2019-05-19T00:22:30.549Z,94.76
2019-05-19T00:23:30.545Z,95.12
2019-05-19T00:24:30.543Z,95.37
2019-05-19T00:25:30.554Z,95.12
2019-05-19T00:26:30.504Z,95.57
2019-05-19T00:27:30.500Z,95.67
2019-05-19T00:28:30.472Z,95.47
2019-05-19T00:29:30.476Z,95.83
2019-05-19T00:30:30.478Z,96.14
2019-05-19T00:31:30.449Z,95.94
2019-05-19T00:32:30.429Z,96.08
2019-05-19T00:33:30.430Z,96.38
2019-05-19T00:34:30.410Z,96.34
2019-05-19T00:35:30.433Z,96.23
2019-05-19T00:36:30.388Z,96.18
2019-05-19T00:37:30.374Z,96.59
2019-05-19T00:38:30.368Z,96.48
2019-05-19T00:39:30.358Z,96.28
2019-05-19T00:40:30.363Z,96.28
2019-05-19T00:41:30.344Z,95.87
2019-05-19T00:42:30.318Z,95.78
2019-05-19T00:43:30.313Z,95.98
2019-05-19T00:44:30.306Z,96.18
2019-05-19T00:45:30.313Z,95.57
2019-05-19T00:46:30.307Z,95.98
2019-05-19T00:47:30.275Z,95.98
2019-05-19T00:48:30.259Z,95.63
2019-05-19T00:49:40.947Z,95.32
2019-05-19T00:50:31.254Z,96.18
2019-05-19T00:51:30.241Z,95.98
2019-05-19T00:52:30.219Z,95.94
2019-05-19T00:53:30.221Z,95.47
2019-05-19T00:54:30.185Z,96.18
2019-05-19T00:55:30.179Z,95.87
2019-05-19T00:56:30.189Z,96.18
2019-05-19T00:57:30.158Z,96.08
2019-05-19T00:58:30.146Z,95.78
2019-05-19T00:59:30.140Z,95.73
2019-05-19T01:00:30.127Z,95.83
2019-05-19T01:01:30.143Z,96.08
2019-05-19T01:02:30.129Z,96.18
2019-05-19T01:03:30.094Z,96.18
2019-05-19T01:04:30.083Z,95.94
2019-05-19T01:05:30.092Z,95.87
2019-05-19T01:06:30.118Z,95.42
2019-05-19T01:07:30.086Z,94.76
2019-05-19T01:08:30.038Z,94.92
2019-05-19T01:09:30.041Z,94.71
2019-05-19T01:10:30.028Z,94.66
2019-05-19T01:11:30.015Z,94.61
2019-05-19T01:12:29.992Z,94.66
2019-05-19T01:13:29.979Z,94.96
2019-05-19T01:14:29.980Z,95.02
2019-05-19T01:15:30.022Z,95.06
2019-05-19T01:16:29.967Z,94.92
2019-05-19T01:17:29.936Z,94.96
2019-05-19T01:18:29.931Z,94.76
2019-05-19T01:19:29.961Z,95.06
2019-05-19T01:20:29.899Z,94.96
2019-05-19T01:21:29.930Z,94.76
2019-05-19T01:22:29.965Z,94.80
2019-05-19T01:23:29.878Z,94.76
2019-05-19T01:24:29.860Z,94.86
2019-05-19T01:25:29.860Z,94.66
2019-05-19T01:26:29.836Z,94.66
2019-05-19T01:27:29.842Z,94.66
2019-05-19T01:28:29.819Z,94.66
2019-05-19T01:29:29.799Z,94.66
2019-05-19T01:30:29.788Z,94.45
2019-05-19T01:31:29.808Z,94.66
2019-05-19T01:32:29.784Z,94.66
2019-05-19T01:33:29.797Z,94.86
2019-05-19T01:34:29.758Z,93.84
2019-05-19T01:35:29.757Z,93.99
2019-05-19T01:36:29.743Z,94.05
2019-05-19T01:37:29.755Z,95.01
2019-05-19T01:38:29.704Z,94.86
2019-05-19T01:39:29.733Z,94.90
2019-05-19T01:40:29.693Z,94.76
2019-05-19T01:41:29.702Z,94.86
2019-05-19T01:42:29.673Z,94.86
2019-05-19T01:43:29.658Z,94.76
2019-05-19T01:44:29.641Z,94.90
2019-05-19T01:45:29.642Z,95.10
2019-05-19T01:46:29.624Z,94.96
2019-05-19T01:47:29.633Z,94.15
2019-05-19T01:48:29.595Z,94.80
2019-05-19T01:49:29.584Z,94.86
2019-05-19T01:50:29.569Z,94.90
2019-05-19T01:51:29.580Z,94.66
2019-05-19T01:52:29.574Z,95.01
2019-05-19T01:53:29.557Z,94.40
2019-05-19T01:54:29.527Z,95.01
2019-05-19T01:55:29.526Z,95.01
2019-05-19T01:56:29.504Z,94.90
2019-05-19T01:57:29.513Z,95.01
2019-05-19T01:58:29.488Z,95.10
2019-05-19T01:59:29.472Z,94.40
2019-05-19T02:00:29.462Z,95.10
2019-05-19T02:01:29.456Z,95.01
2019-05-19T02:02:29.483Z,95.51
2019-05-19T02:03:29.449Z,95.21
2019-05-19T02:04:29.430Z,95.21
2019-05-19T02:05:29.435Z,95.41
2019-05-19T02:06:29.413Z,95.41
2019-05-19T02:07:29.387Z,95.41
2019-05-19T02:08:29.406Z,95.72
2019-05-19T02:09:29.391Z,95.82
2019-05-19T02:10:29.360Z,95.86
2019-05-19T02:11:29.346Z,96.07
2019-05-19T02:12:29.352Z,96.12
2019-05-19T02:13:29.338Z,95.86
2019-05-19T02:14:29.321Z,96.02
2019-05-19T02:15:29.302Z,96.02
2019-05-19T02:16:29.296Z,96.02
2019-05-19T02:17:29.278Z,95.82
2019-05-19T02:18:29.284Z,95.41
2019-05-19T02:19:29.280Z,95.21
2019-05-19T02:20:33.161Z,94.80
2019-05-19T02:21:29.239Z,95.01
2019-05-19T02:22:29.237Z,94.95
2019-05-19T02:23:29.237Z,95.10
2019-05-19T02:24:29.201Z,95.01
2019-05-19T02:25:29.187Z,95.46
2019-05-19T02:26:29.182Z,95.56
2019-05-19T02:27:29.186Z,95.51
2019-05-19T02:28:29.174Z,95.51
2019-05-19T02:29:29.150Z,95.41
2019-05-19T02:30:29.153Z,95.51
2019-05-19T02:31:29.158Z,95.72
2019-05-19T02:32:29.117Z,95.62
2019-05-19T02:33:29.112Z,95.66
2019-05-19T02:34:29.091Z,95.92
2019-05-19T02:35:29.078Z,95.72
2019-05-19T02:36:29.071Z,95.41
2019-05-19T02:37:29.060Z,95.51
2019-05-19T02:38:29.070Z,95.10
2019-05-19T02:39:29.050Z,95.21
2019-05-19T02:40:29.023Z,94.44
2019-05-19T02:41:29.031Z,94.90
2019-05-19T02:42:29.015Z,95.01
2019-05-19T02:43:28.988Z,95.21
2019-05-19T02:44:29.006Z,95.01
2019-05-19T02:45:28.982Z,95.05
2019-05-19T02:46:28.964Z,95.21
2019-05-19T02:47:28.947Z,95.25
2019-05-19T02:48:28.943Z,95.05
2019-05-19T02:49:28.960Z,95.25
2019-05-19T02:50:28.912Z,95.05
2019-05-19T02:51:28.912Z,94.74
2019-05-19T02:52:28.905Z,94.85
2019-05-19T02:53:28.894Z,94.64
2019-05-19T02:54:28.889Z,94.74
2019-05-19T02:55:28.871Z,94.74
2019-05-19T02:56:28.845Z,94.44
2019-05-19T02:57:28.847Z,94.54
2019-05-19T02:58:28.949Z,94.85
2019-05-19T02:59:28.840Z,94.74
2019-05-19T03:00:28.812Z,94.74
2019-05-19T03:01:28.790Z,94.64
2019-05-19T03:02:28.789Z,94.85
2019-05-19T03:03:28.846Z,94.74
2019-05-19T03:04:28.784Z,94.85
2019-05-19T03:05:28.760Z,94.85
2019-05-19T03:06:28.743Z,94.95
2019-05-19T03:07:28.730Z,94.74
2019-05-19T03:08:28.740Z,94.95
2019-05-19T03:09:28.755Z,95.15
2019-05-19T03:10:28.720Z,95.15
2019-05-19T03:11:28.697Z,95.15
2019-05-19T03:12:28.699Z,95.25
2019-05-19T03:13:28.662Z,94.85
2019-05-19T03:14:28.650Z,94.74
2019-05-19T03:15:28.691Z,94.85
2019-05-19T03:16:28.661Z,94.74
2019-05-19T03:17:28.616Z,95.15
2019-05-19T03:18:28.603Z,95.05
2019-05-19T03:19:28.607Z,94.95
2019-05-19T03:20:28.603Z,94.95
2019-05-19T03:21:28.584Z,94.95
2019-05-19T03:22:28.677Z,94.95
2019-05-19T03:23:28.551Z,94.89
2019-05-19T03:24:28.538Z,94.85
2019-05-19T03:25:28.557Z,94.79
2019-05-19T03:26:28.553Z,94.85
2019-05-19T03:27:28.522Z,94.79
2019-05-19T03:28:28.494Z,94.89
2019-05-19T03:29:28.501Z,94.95
2019-05-19T03:30:28.511Z,94.79
2019-05-19T03:31:28.516Z,95.00
2019-05-19T03:32:28.462Z,94.69
2019-05-19T03:33:28.459Z,94.89
2019-05-19T03:34:28.426Z,95.20
2019-05-19T03:35:28.458Z,95.09
2019-05-19T03:36:28.409Z,95.30
2019-05-19T03:37:28.397Z,95.36
2019-05-19T03:38:28.398Z,95.50
2019-05-19T03:39:28.373Z,95.40
2019-05-19T03:40:28.362Z,95.30
2019-05-19T03:41:28.379Z,95.50
2019-05-19T03:42:28.346Z,95.81
2019-05-19T03:43:28.340Z,95.61
2019-05-19T03:44:28.322Z,95.70
2019-05-19T03:45:28.331Z,95.91
2019-05-19T03:46:28.314Z,95.91
2019-05-19T03:47:28.302Z,96.22
2019-05-19T03:48:28.277Z,96.31
2019-05-19T03:49:28.260Z,96.22
2019-05-19T03:50:28.275Z,96.22
2019-05-19T03:51:31.398Z,95.91
2019-05-19T03:52:28.258Z,95.91
2019-05-19T03:53:28.225Z,96.31
2019-05-19T03:54:28.209Z,95.91
2019-05-19T03:55:28.237Z,96.31
2019-05-19T03:56:28.203Z,96.22
2019-05-19T03:57:28.242Z,96.11
2019-05-19T03:58:28.191Z,95.86
2019-05-19T03:59:28.182Z,96.22
2019-05-19T04:00:28.142Z,96.31
2019-05-19T04:01:28.156Z,96.22
2019-05-19T04:02:28.148Z,96.42
2019-05-19T04:03:28.126Z,96.72
2019-05-19T04:04:28.099Z,97.03
2019-05-19T04:05:28.095Z,97.23
2019-05-19T04:06:28.083Z,96.83
2019-05-19T04:07:28.071Z,96.83
2019-05-19T04:08:28.074Z,97.13
2019-05-19T04:09:28.043Z,96.83
2019-05-19T04:10:28.046Z,97.44
2019-05-19T04:11:28.020Z,96.92
2019-05-19T04:12:28.028Z,97.03
2019-05-19T04:13:28.000Z,97.13
2019-05-19T04:14:27.988Z,97.44
2019-05-19T04:15:27.979Z,97.33
2019-05-19T04:16:27.978Z,96.83
2019-05-19T04:17:27.987Z,96.83
2019-05-19T04:18:27.948Z,97.23
2019-05-19T04:19:27.934Z,97.13
2019-05-19T04:20:27.952Z,97.23
2019-05-19T04:21:27.926Z,97.03
2019-05-19T04:22:27.925Z,97.53
2019-05-19T04:23:27.893Z,96.42
2019-05-19T04:24:27.884Z,95.81
2019-05-19T04:25:27.877Z,95.86
2019-05-19T04:26:27.861Z,96.11
2019-05-19T04:27:27.886Z,96.22
2019-05-19T04:28:27.849Z,96.11
2019-05-19T04:29:27.827Z,96.11
2019-05-19T04:30:27.811Z,96.17
2019-05-19T04:31:27.809Z,96.17
2019-05-19T04:32:27.793Z,95.86
2019-05-19T04:33:27.803Z,95.97
2019-05-19T04:34:27.776Z,96.07
2019-05-19T04:35:27.763Z,95.76
2019-05-19T04:36:27.745Z,95.81
2019-05-19T04:37:27.808Z,96.17
2019-05-19T04:38:27.747Z,96.22
2019-05-19T04:39:27.739Z,96.07
2019-05-19T04:40:27.710Z,96.27
2019-05-19T04:41:27.695Z,96.52
2019-05-19T04:42:27.690Z,96.78
2019-05-19T04:43:27.681Z,97.08
2019-05-19T04:44:27.689Z,97.19
2019-05-19T04:45:27.662Z,97.19
2019-05-19T04:46:27.652Z,96.98
2019-05-19T04:47:27.626Z,96.78
2019-05-19T04:48:27.613Z,96.98
2019-05-19T04:49:27.638Z,97.29
2019-05-19T04:50:27.599Z,97.29
2019-05-19T04:51:27.596Z,97.08
2019-05-19T04:52:27.575Z,97.03
2019-05-19T04:53:27.570Z,97.08
2019-05-19T04:54:27.575Z,97.08
2019-05-19T04:55:27.559Z,96.88
2019-05-19T04:56:27.535Z,97.13
2019-05-19T04:57:27.541Z,96.88
2019-05-19T04:58:27.503Z,96.47
2019-05-19T04:59:27.560Z,96.47
2019-05-19T05:00:27.486Z,96.27
2019-05-19T05:01:27.488Z,96.58
2019-05-19T05:02:27.464Z,96.37
2019-05-19T05:03:27.467Z,97.39
2019-05-19T05:04:29.512Z,96.88
2019-05-19T05:05:27.438Z,96.98
2019-05-19T05:06:27.440Z,97.08
2019-05-19T05:07:27.540Z,96.98
2019-05-19T05:08:30.408Z,96.88
2019-05-19T05:09:27.487Z,97.08
2019-05-19T05:10:27.419Z,96.78
2019-05-19T05:11:27.365Z,97.19
2019-05-19T05:12:27.374Z,97.08
2019-05-19T05:13:27.354Z,96.98
2019-05-19T05:14:27.343Z,96.98
2019-05-19T05:15:27.334Z,97.29
2019-05-19T05:16:27.309Z,97.08
2019-05-19T05:17:27.295Z,96.98
2019-05-19T05:18:27.286Z,96.88
2019-05-19T05:19:27.301Z,96.98
2019-05-19T05:20:27.268Z,97.14
2019-05-19T05:21:27.253Z,97.08
2019-05-19T05:22:27.246Z,96.73
2019-05-19T05:23:27.253Z,96.47
2019-05-19T05:24:28.717Z,96.43
2019-05-19T05:25:27.234Z,96.47
2019-05-19T05:26:27.209Z,96.12
2019-05-19T05:27:27.205Z,96.23
2019-05-19T05:28:27.173Z,95.82
2019-05-19T05:29:27.173Z,95.72
2019-05-19T05:30:27.175Z,95.92
2019-05-19T05:31:27.142Z,96.07
2019-05-19T05:32:27.141Z,95.82
2019-05-19T05:33:27.127Z,96.33
2019-05-19T05:34:27.114Z,96.33
2019-05-19T05:35:27.115Z,95.92
2019-05-19T05:36:27.849Z,96.23
2019-05-19T05:37:27.082Z,95.72
2019-05-19T05:38:27.068Z,96.33
2019-05-19T05:39:27.064Z,95.92
2019-05-19T05:40:27.071Z,96.23
2019-05-19T05:41:27.046Z,95.41
2019-05-19T05:42:27.039Z,95.21
2019-05-19T05:43:27.016Z,95.01
2019-05-19T05:44:27.014Z,94.96
2019-05-19T05:45:27.033Z,94.80
2019-05-19T05:46:26.982Z,95.41
2019-05-19T05:47:26.968Z,95.72
2019-05-19T05:48:26.975Z,95.41
2019-05-19T05:49:26.945Z,95.51
2019-05-19T05:50:26.952Z,95.92
2019-05-19T05:51:26.934Z,96.59
2019-05-19T05:52:37.931Z,96.99
2019-05-19T05:53:27.911Z,97.20
2019-05-19T05:54:26.893Z,97.34
2019-05-19T05:55:26.909Z,97.30
2019-05-19T05:56:26.888Z,97.30
2019-05-19T05:57:26.871Z,97.71
2019-05-19T05:58:26.873Z,97.50
2019-05-19T05:59:26.849Z,97.50
2019-05-19T06:00:26.871Z,97.71
2019-05-19T06:01:26.819Z,97.40
2019-05-19T06:02:26.807Z,97.20
2019-05-19T06:03:26.818Z,97.50
2019-05-19T06:04:26.792Z,97.35
2019-05-19T06:05:26.811Z,97.50
2019-05-19T06:06:26.802Z,97.09
2019-05-19T06:07:26.753Z,97.40
2019-05-19T06:08:26.754Z,97.66
2019-05-19T06:09:26.725Z,97.25
2019-05-19T06:10:26.730Z,97.71
2019-05-19T06:11:26.712Z,97.60
2019-05-19T06:12:26.691Z,97.71
2019-05-19T06:13:26.682Z,97.66
2019-05-19T06:14:26.685Z,97.35
2019-05-19T06:15:27.012Z,97.25
2019-05-19T06:16:26.696Z,97.45
2019-05-19T06:17:26.710Z,96.84
2019-05-19T06:18:26.648Z,96.95
2019-05-19T06:19:26.624Z,97.35
2019-05-19T06:20:26.620Z,96.95
2019-05-19T06:21:26.608Z,97.11
2019-05-19T06:22:26.583Z,97.41
2019-05-19T06:23:26.578Z,97.11
2019-05-19T06:24:26.574Z,97.31
2019-05-19T06:25:26.564Z,96.80
2019-05-19T06:26:26.561Z,97.11
2019-05-19T06:27:26.549Z,96.09
2019-05-19T06:28:26.537Z,95.99
2019-05-19T06:29:26.651Z,95.89
2019-05-19T06:30:26.498Z,95.68
2019-05-19T06:31:26.507Z,95.89
2019-05-19T06:32:26.480Z,95.48
2019-05-19T06:33:26.469Z,95.74
2019-05-19T06:34:26.462Z,95.84
2019-05-19T06:35:26.446Z,95.23
2019-05-19T06:36:26.480Z,95.03
2019-05-19T06:37:26.457Z,94.73
2019-05-19T06:38:26.413Z,95.03
2019-05-19T06:39:26.416Z,95.34
2019-05-19T06:40:26.391Z,94.89
2019-05-19T06:41:26.410Z,94.62
2019-05-19T06:42:26.385Z,94.78
2019-05-19T06:43:26.405Z,93.77
2019-05-19T06:44:26.360Z,93.97
2019-05-19T06:45:26.373Z,94.68
2019-05-19T06:46:26.324Z,94.89
2019-05-19T06:47:26.331Z,96.10
2019-05-19T06:48:26.303Z,96.00
2019-05-19T06:49:26.296Z,96.71
2019-05-19T06:50:26.284Z,96.10
2019-05-19T06:51:26.277Z,96.00
2019-05-19T06:52:26.308Z,95.39
2019-05-19T06:53:26.269Z,94.68
2019-05-19T06:54:26.231Z,94.34
2019-05-19T06:55:26.227Z,94.54
2019-05-19T06:56:26.210Z,94.48
2019-05-19T06:57:26.237Z,94.64
2019-05-19T06:58:26.202Z,94.84
2019-05-19T06:59:26.179Z,94.64
2019-05-19T07:00:26.163Z,94.64
2019-05-19T07:01:26.162Z,92.71
2019-05-19T07:02:26.162Z,91.70
2019-05-19T07:03:26.136Z,91.19
2019-05-19T07:04:26.123Z,91.70
2019-05-19T07:05:26.112Z,91.70
2019-05-19T07:06:26.116Z,91.70
2019-05-19T07:07:26.111Z,92.41
2019-05-19T07:08:26.076Z,91.70
2019-05-19T07:09:26.387Z,90.79
2019-05-19T07:10:26.057Z,90.89
2019-05-19T07:11:26.052Z,91.39
2019-05-19T07:12:26.048Z,90.58
2019-05-19T07:13:26.100Z,91.30
2019-05-19T07:14:26.030Z,91.39
2019-05-19T07:15:26.002Z,90.69
2019-05-19T07:16:25.989Z,91.09
2019-05-19T07:17:26.004Z,91.30
2019-05-19T07:18:25.982Z,91.19
2019-05-19T07:19:25.954Z,91.09
2019-05-19T07:20:25.952Z,91.19
2019-05-19T07:21:25.938Z,91.60
2019-05-19T07:22:25.929Z,91.80
2019-05-19T07:23:28.133Z,92.61
2019-05-19T07:24:25.899Z,91.70
2019-05-19T07:25:25.911Z,91.19
2019-05-19T07:26:25.878Z,91.39
2019-05-19T07:27:25.868Z,90.58
2019-05-19T07:28:25.872Z,91.39
2019-05-19T07:29:25.846Z,91.55
2019-05-19T07:30:25.835Z,91.39
2019-05-19T07:31:25.824Z,91.30
2019-05-19T07:32:25.810Z,91.35
2019-05-19T07:33:25.838Z,91.55
2019-05-19T07:34:25.806Z,91.15
2019-05-19T07:35:25.805Z,91.25
2019-05-19T07:36:25.789Z,90.95
2019-05-19T07:37:25.766Z,91.35
2019-05-19T07:38:25.773Z,89.83
2019-05-19T07:39:25.767Z,90.03
2019-05-19T07:40:25.730Z,90.54
2019-05-19T07:41:25.719Z,90.64
2019-05-19T07:42:25.701Z,91.35
2019-05-19T07:43:25.689Z,91.55
2019-05-19T07:44:25.700Z,93.03
2019-05-19T07:45:25.675Z,92.22
2019-05-19T07:46:25.658Z,91.61
2019-05-19T07:47:25.649Z,91.51
2019-05-19T07:48:25.644Z,91.11
2019-05-19T07:49:25.654Z,92.83
2019-05-19T07:50:25.618Z,92.28
2019-05-19T07:51:25.609Z,90.36
2019-05-19T07:52:25.588Z,89.95
2019-05-19T07:53:25.618Z,89.54
2019-05-19T07:54:25.572Z,90.16
2019-05-19T07:55:25.562Z,88.74
2019-05-19T07:56:25.551Z,88.79
2019-05-19T07:57:25.541Z,89.00
2019-05-19T07:58:25.523Z,89.61
2019-05-19T07:59:25.532Z,89.20
2019-05-19T08:00:25.525Z,88.79
2019-05-19T08:01:25.496Z,87.48
2019-05-19T08:02:25.480Z,88.35
2019-05-19T08:03:25.476Z,87.24
2019-05-19T08:04:25.477Z,84.81
2019-05-19T08:05:25.465Z,84.97
2019-05-19T08:06:25.446Z,84.47
2019-05-19T08:07:25.426Z,84.27
2019-05-19T08:08:25.410Z,84.27
2019-05-19T08:09:25.423Z,83.26
2019-05-19T08:10:25.390Z,82.55
2019-05-19T08:11:25.383Z,84.57
2019-05-19T08:12:25.380Z,86.25
2019-05-19T08:13:25.355Z,87.81
2019-05-19T08:14:25.371Z,84.47
2019-05-19T08:15:25.356Z,86.04
2019-05-19T08:16:25.321Z,86.15
2019-05-19T08:17:26.004Z,84.23
2019-05-19T08:18:25.319Z,84.43
2019-05-19T08:19:25.307Z,83.62
2019-05-19T08:20:25.297Z,84.63
2019-05-19T08:21:25.278Z,84.33
2019-05-19T08:22:25.260Z,84.23
2019-05-19T08:23:25.251Z,83.01
2019-05-19T08:24:25.276Z,82.51
2019-05-19T08:25:25.225Z,82.47
2019-05-19T08:26:25.213Z,84.39
2019-05-19T08:27:25.230Z,83.78
2019-05-19T08:28:25.193Z,83.58
2019-05-19T08:29:25.209Z,82.47
2019-05-19T08:30:25.214Z,82.27
2019-05-19T08:31:25.191Z,83.48
2019-05-19T08:32:25.164Z,84.99
2019-05-19T08:33:25.206Z,85.86
2019-05-19T08:34:25.123Z,84.95
2019-05-19T08:35:25.133Z,84.21
2019-05-19T08:36:25.168Z,83.00
2019-05-19T08:37:25.097Z,82.79
2019-05-19T08:38:25.079Z,82.05
2019-05-19T08:39:25.118Z,81.85
2019-05-19T08:40:25.076Z,78.92
2019-05-19T08:41:25.052Z,79.53
2019-05-19T08:42:25.059Z,79.49
2019-05-19T08:43:25.044Z,78.72
2019-05-19T08:44:25.020Z,82.31
2019-05-19T08:45:25.030Z,82.71
2019-05-19T08:46:24.992Z,82.07
2019-05-19T08:47:24.997Z,83.18
2019-05-19T08:48:24.984Z,82.44
2019-05-19T08:49:24.978Z,83.34
2019-05-19T08:50:24.976Z,82.14
2019-05-19T08:51:24.934Z,81.13
2019-05-19T08:52:24.929Z,81.39
2019-05-19T08:53:24.919Z,79.88
2019-05-19T08:54:24.917Z,79.54
2019-05-19T08:55:24.939Z,80.89
2019-05-19T08:56:24.903Z,79.85
2019-05-19T08:57:24.921Z,80.85
2019-05-19T08:58:24.895Z,79.54
2019-05-19T08:59:24.847Z,78.90
2019-05-19T09:00:24.865Z,79.71
2019-05-19T09:01:24.829Z,78.46
2019-05-19T09:02:24.814Z,78.16
2019-05-19T09:03:24.847Z,77.76
2019-05-19T09:04:24.801Z,75.75
2019-05-19T09:05:24.790Z,77.12
2019-05-19T09:06:24.796Z,77.26
2019-05-19T09:07:24.758Z,75.31
2019-05-19T09:08:24.834Z,75.62
2019-05-19T09:09:24.743Z,74.71
2019-05-19T09:10:24.842Z,74.07
2019-05-19T09:11:24.732Z,76.48
2019-05-19T09:12:24.737Z,76.58
2019-05-19T09:13:24.696Z,74.74
2019-05-19T09:14:24.700Z,74.44
2019-05-19T09:15:24.724Z,73.94
2019-05-19T09:16:24.667Z,73.90
2019-05-19T09:17:24.673Z,75.01
2019-05-19T09:18:24.642Z,75.21
2019-05-19T09:19:24.662Z,73.70
2019-05-19T09:20:24.640Z,74.01
2019-05-19T09:21:24.634Z,75.67
2019-05-19T09:22:24.669Z,76.17
2019-05-19T09:23:24.632Z,77.08
2019-05-19T09:24:30.519Z,74.37
2019-05-19T09:25:25.582Z,71.23
2019-05-19T09:26:24.569Z,73.10
2019-05-19T09:27:24.572Z,71.59
2019-05-19T09:28:24.539Z,70.79
2019-05-19T09:29:24.522Z,70.69
2019-05-19T09:30:24.511Z,71.76
2019-05-19T09:31:24.499Z,72.76
2019-05-19T09:32:24.560Z,71.86
2019-05-19T09:33:24.476Z,71.12
2019-05-19T09:34:24.476Z,70.62
2019-05-19T09:35:24.465Z,70.32
2019-05-19T09:36:24.491Z,70.12
2019-05-19T09:37:24.454Z,71.19
2019-05-19T09:38:24.440Z,70.89
2019-05-19T09:39:24.409Z,69.46
2019-05-19T09:40:26.597Z,64.79
2019-05-19T09:41:24.402Z,63.26
2019-05-19T09:42:24.425Z,66.16
2019-05-19T09:43:24.399Z,68.36
2019-05-19T09:44:24.356Z,66.26
2019-05-19T09:45:24.351Z,65.36
2019-05-19T09:46:24.332Z,60.44
2019-05-19T09:47:24.358Z,60.33
2019-05-19T09:48:24.345Z,58.73
2019-05-19T09:49:24.304Z,61.04
2019-05-19T09:50:24.292Z,61.07
2019-05-19T09:51:24.284Z,62.83
2019-05-19T09:52:24.293Z,64.36
2019-05-19T09:53:24.328Z,63.43
2019-05-19T09:54:24.265Z,62.13
2019-05-19T09:55:24.249Z,61.93
2019-05-19T09:56:24.238Z,62.53
2019-05-19T09:57:24.267Z,61.04
2019-05-19T09:58:24.225Z,61.83
2019-05-19T09:59:24.198Z,61.90
2019-05-19T10:00:24.195Z,63.90
2019-05-19T10:01:24.182Z,61.38
2019-05-19T10:02:24.178Z,60.71
2019-05-19T10:03:24.231Z,58.48
2019-05-19T10:04:24.144Z,59.08
2019-05-19T10:05:24.167Z,59.78
2019-05-19T10:06:24.114Z,58.48
2019-05-19T10:07:24.120Z,61.68
2019-05-19T10:08:24.123Z,57.15
2019-05-19T10:09:24.088Z,59.08
2019-05-19T10:10:24.073Z,61.05
2019-05-19T10:11:24.084Z,58.25
2019-05-19T10:12:24.053Z,54.46
2019-05-19T10:13:24.074Z,55.26
2019-05-19T10:14:24.046Z,57.35
2019-05-19T10:15:24.040Z,56.96
2019-05-19T10:16:24.024Z,58.25
2019-05-19T10:17:23.999Z,55.83
2019-05-19T10:18:24.022Z,57.53
2019-05-19T10:19:23.987Z,57.93
2019-05-19T10:20:23.961Z,56.33
2019-05-19T10:21:23.966Z,55.63
2019-05-19T10:22:23.955Z,56.03
2019-05-19T10:23:23.931Z,59.02
2019-05-19T10:24:23.988Z,56.13
2019-05-19T10:25:24.091Z,54.34
2019-05-19T10:26:23.941Z,57.82
2019-05-19T10:27:23.887Z,57.82
2019-05-19T10:28:23.883Z,57.43
2019-05-19T10:29:23.895Z,57.33
2019-05-19T10:30:23.875Z,56.01
2019-05-19T10:31:23.906Z,54.71
2019-05-19T10:32:23.839Z,55.01
2019-05-19T10:33:23.832Z,55.83
2019-05-19T10:34:23.809Z,55.24
2019-05-19T10:35:23.838Z,57.43
2019-05-19T10:36:23.787Z,57.23
2019-05-19T10:37:23.786Z,57.00
2019-05-19T10:38:23.769Z,57.00
2019-05-19T10:39:23.783Z,57.20
2019-05-19T10:40:23.788Z,55.83
2019-05-19T10:41:23.742Z,57.50
2019-05-19T10:42:23.723Z,56.90
2019-05-19T10:43:23.755Z,58.50
2019-05-19T10:44:23.703Z,55.61
2019-05-19T10:45:23.742Z,56.10
2019-05-19T10:46:23.692Z,57.43
2019-05-19T10:47:23.670Z,55.01
2019-05-19T10:48:23.662Z,56.23
2019-05-19T10:49:23.643Z,56.51
2019-05-19T10:50:23.662Z,57.43
2019-05-19T10:51:23.626Z,55.31
2019-05-19T10:52:23.631Z,55.24
2019-05-19T10:53:23.617Z,56.93
2019-05-19T10:54:23.606Z,57.10
2019-05-19T10:55:35.543Z,55.51
2019-05-19T10:56:24.579Z,54.31
2019-05-19T10:57:23.556Z,55.80
2019-05-19T10:58:23.565Z,55.61
2019-05-19T10:59:23.542Z,55.71
2019-05-19T11:00:23.550Z,55.48
2019-05-19T11:01:23.529Z,55.61
2019-05-19T11:02:23.511Z,55.28
2019-05-19T11:03:23.497Z,54.68
2019-05-19T11:04:23.506Z,54.68
2019-05-19T11:05:23.501Z,53.96
2019-05-19T11:06:23.476Z,55.26
2019-05-19T11:07:23.464Z,56.45
2019-05-19T11:08:23.442Z,53.86
2019-05-19T11:09:23.429Z,54.16
2019-05-19T11:10:23.444Z,54.66
2019-05-19T11:11:23.412Z,51.97
2019-05-19T11:12:23.471Z,52.37
2019-05-19T11:13:23.389Z,52.64
2019-05-19T11:14:23.378Z,53.14
2019-05-19T11:15:23.388Z,53.44
2019-05-19T11:16:23.355Z,54.13
2019-05-19T11:17:23.352Z,52.14
2019-05-19T11:18:23.343Z,49.53
2019-05-19T11:19:23.318Z,49.83
2019-05-19T11:20:23.325Z,49.63
2019-05-19T11:21:23.376Z,50.93
2019-05-19T11:22:23.328Z,51.03
2019-05-19T11:23:23.276Z,53.28
2019-05-19T11:24:23.295Z,49.80
2019-05-19T11:25:33.540Z,52.00
2019-05-19T11:26:24.269Z,51.60
2019-05-19T11:27:23.241Z,50.60
2019-05-19T11:28:23.273Z,51.10
2019-05-19T11:29:23.228Z,49.11
2019-05-19T11:30:23.212Z,49.31
2019-05-19T11:31:23.217Z,48.91
2019-05-19T11:32:23.177Z,49.01
2019-05-19T11:33:23.176Z,48.91
2019-05-19T11:34:23.155Z,48.52
2019-05-19T11:35:23.150Z,46.92
2019-05-19T11:36:23.136Z,47.62
2019-05-19T11:37:23.158Z,46.53
2019-05-19T11:38:23.109Z,46.33
2019-05-19T11:39:23.133Z,47.82
2019-05-19T11:40:23.096Z,48.79
2019-05-19T11:41:23.119Z,47.02
2019-05-19T11:42:23.075Z,46.33
2019-05-19T11:43:23.136Z,47.20
2019-05-19T11:44:23.046Z,49.49
2019-05-19T11:45:23.060Z,46.80
2019-05-19T11:46:23.031Z,47.30
2019-05-19T11:47:23.046Z,45.11
2019-05-19T11:48:23.015Z,45.51
2019-05-19T11:49:22.994Z,45.49
2019-05-19T11:50:22.991Z,46.08
2019-05-19T11:51:22.974Z,45.98
2019-05-19T11:52:22.981Z,46.78
2019-05-19T11:53:22.967Z,47.17
2019-05-19T11:54:22.954Z,47.08
2019-05-19T11:55:22.933Z,46.78
2019-05-19T11:56:22.921Z,45.79
2019-05-19T11:57:22.932Z,46.08
2019-05-19T11:58:22.905Z,47.08
2019-05-19T11:59:22.894Z,45.49
2019-05-19T12:00:22.879Z,44.89
2019-05-19T12:01:22.875Z,45.89
2019-05-19T12:02:22.872Z,47.38
2019-05-19T12:03:22.848Z,45.98
2019-05-19T12:04:22.828Z,44.29
2019-05-19T12:05:22.903Z,44.49
2019-05-19T12:06:37.626Z,44.89
2019-05-19T12:07:23.838Z,46.88
2019-05-19T12:08:22.809Z,45.59
2019-05-19T12:09:22.795Z,43.90
2019-05-19T12:10:22.809Z,45.39
2019-05-19T12:11:22.775Z,45.39
2019-05-19T12:12:22.752Z,46.26
2019-05-19T12:13:22.760Z,44.40
2019-05-19T12:14:22.798Z,44.40
2019-05-19T12:15:22.721Z,43.80
2019-05-19T12:16:22.714Z,45.49
2019-05-19T12:17:22.708Z,44.40
2019-05-19T12:18:22.696Z,45.89
2019-05-19T12:19:22.673Z,45.19
2019-05-19T12:20:22.659Z,45.89
2019-05-19T12:21:22.664Z,45.09
2019-05-19T12:22:22.654Z,44.29
2019-05-19T12:23:22.649Z,45.68
2019-05-19T12:24:22.628Z,44.29
2019-05-19T12:25:22.602Z,43.40
2019-05-19T12:26:23.795Z,43.23
2019-05-19T12:27:22.585Z,44.52
2019-05-19T12:28:22.607Z,45.51
2019-05-19T12:29:22.572Z,44.32
2019-05-19T12:30:22.563Z,43.32
2019-05-19T12:31:22.578Z,42.83
2019-05-19T12:32:22.534Z,43.64
2019-05-19T12:33:22.556Z,44.14
2019-05-19T12:34:22.517Z,45.23
2019-05-19T12:35:22.502Z,45.36
2019-05-19T12:36:22.494Z,45.65
2019-05-19T12:37:22.539Z,45.85
2019-05-19T12:38:22.492Z,46.75
2019-05-19T12:39:22.481Z,47.05
2019-05-19T12:40:22.866Z,45.75
2019-05-19T12:41:22.439Z,44.66
2019-05-19T12:42:22.424Z,42.47
2019-05-19T12:43:22.460Z,43.38
2019-05-19T12:44:22.402Z,45.57
2019-05-19T12:45:22.409Z,46.17
2019-05-19T12:46:22.402Z,46.87
2019-05-19T12:47:22.383Z,46.69
2019-05-19T12:48:22.413Z,47.09
2019-05-19T12:49:22.362Z,42.61
2019-05-19T12:50:22.350Z,45.40
2019-05-19T12:51:22.351Z,46.99
2019-05-19T12:52:22.349Z,47.09